Airfield :
LOGIN :

Register | Disclaimer

   EN    FR    IT 

 










Legend :    VFR   Marginal VFR   IFR   Intensive IFR   Very Intensive IFR
Visi :
Ceiling :
>= 8 km
>= 3000ft
5 to 8 km
1000 to 3000 ft
1500m to 5 km
500 to 1000 ft
800 to 1500m
200 to 500 ft
< 800m
< 200 ft
Symbols :   Thunderstorms  Fog  Heavy snow  Heavy precipitations  Wind > 20 kt
SIGMETs :     Misc.  Thunderstorms  Icing  Turbulence  Mountain Waves  Volcanic Ashes






- Airport Elevation : -11 ft
- IATA code : AMS


EHAM - Amsterdam Schiphol

CURRENT METAR :
  • 180425Z VRB02KT 9999 FEW040 12/11 Q1013 NOSIG

EXPIRED METARs :
  • 180355Z VRB02KT 9999 FEW040 12/10 Q1013 NOSIG
  • 180325Z VRB02KT 9999 FEW040 11/09 Q1014 NOSIG
  • 180255Z 12003KT 9999 MIFG NSC 10/10 Q1013 NOSIG
  • 180225Z VRB02KT CAVOK 11/10 Q1013 NOSIG
  • 180155Z 00000KT CAVOK 11/09 Q1014 NOSIG
  • 180125Z 13002KT CAVOK 12/09 Q1014 NOSIG
  • 180055Z 13002KT CAVOK 11/10 Q1014 NOSIG
  • 180025Z VRB01KT CAVOK 12/10 Q1014 NOSIG
  • 172355Z VRB02KT CAVOK 12/10 Q1014 NOSIG

TAF TAF EHAM
Valid from the 18 at 00:00 until the 19 at 06:00 UTC


172318Z 1800/1906 14003KT CAVOK
BECMG 1812/1815 35007KT
PROB30
TEMPO 1814/1820 7000 RA -SHRA FEW030TCU BKN045
PROB30 1822/1903 SCT008 BKN012
BECMG 1903/1906 03010KT BKN016



MET'MAP, your aeronautical weather chart ! - Copyright ORBIFLY December 2007 - Disclaimer

ORBIFLY MET'MAP TEAM :

Programming & Development : Alexandra Zaïnal
Original concept : Baudouin d'Aumeries
Technical & hardware support : Manuel Goepfert
Assistance : Marc-Olivier Méhu




SOURCES & CREDITS :

   NOAA